createdAt,value
2022-12-03T00:00:18.336Z,26.40
2022-12-03T00:02:44.908Z,27.67
2022-12-03T00:05:11.539Z,28.85
2022-12-03T00:07:38.113Z,29.25
2022-12-03T00:10:05.677Z,25.63
2022-12-03T00:12:32.092Z,29.67
2022-12-03T00:14:58.695Z,29.90
2022-12-03T00:17:25.228Z,31.27
2022-12-03T00:19:51.685Z,28.52
2022-12-03T00:22:18.129Z,22.73
2022-12-03T00:24:44.580Z,26.75
2022-12-03T00:27:11.023Z,29.45
2022-12-03T00:29:37.440Z,29.67
2022-12-03T00:32:03.927Z,28.88
2022-12-03T00:34:30.357Z,29.27
2022-12-03T00:36:56.831Z,30.98
2022-12-03T00:39:23.235Z,32.38
2022-12-03T00:41:49.632Z,31.35
2022-12-03T00:44:16.163Z,31.90
2022-12-03T00:46:42.743Z,31.33
2022-12-03T00:49:09.309Z,28.45
2022-12-03T00:51:35.929Z,31.88
2022-12-03T00:54:02.426Z,31.33
2022-12-03T00:56:28.866Z,30.05
2022-12-03T00:58:55.320Z,26.77
2022-12-03T01:01:21.850Z,29.05
2022-12-03T01:03:48.315Z,35.35
2022-12-03T01:06:14.760Z,28.77
2022-12-03T01:08:41.243Z,29.90
2022-12-03T01:11:27.721Z,31.70
2022-12-03T01:13:54.152Z,29.65
2022-12-03T01:16:20.742Z,34.55
2022-12-03T01:18:47.388Z,32.67
2022-12-03T01:21:13.798Z,36.10
2022-12-03T01:23:40.245Z,33.03
2022-12-03T01:26:06.697Z,33.78
2022-12-03T01:28:33.203Z,30.45
2022-12-03T01:31:18.048Z,33.35
2022-12-03T01:33:44.561Z,31.17
2022-12-03T01:36:10.965Z,29.03
2022-12-03T01:38:37.360Z,30.60
2022-12-03T01:41:10.075Z,31.17
2022-12-03T01:43:38.468Z,36.05
2022-12-03T01:46:05.186Z,35.05
2022-12-03T01:48:34.855Z,33.07
2022-12-03T01:51:01.852Z,33.95
2022-12-03T01:53:28.306Z,35.67
2022-12-03T01:55:54.889Z,31.63
2022-12-03T01:58:26.205Z,32.13
2022-12-03T02:00:52.665Z,29.50
2022-12-03T02:03:23.376Z,31.75
2022-12-03T02:05:50.616Z,35.65
2022-12-03T02:08:34.945Z,32.50
2022-12-03T02:11:19.694Z,30.83
2022-12-03T02:13:47.827Z,32.03
2022-12-03T02:16:14.331Z,35.63
2022-12-03T02:18:41.399Z,33.53
2022-12-03T02:21:22.176Z,33.42
2022-12-03T02:24:01.724Z,32.58
2022-12-03T02:26:29.720Z,32.23
2022-12-03T02:28:56.881Z,35.10
2022-12-03T02:31:24.096Z,34.92
2022-12-03T02:33:50.760Z,30.02
2022-12-03T02:36:17.362Z,35.38
2022-12-03T02:38:45.460Z,29.87
2022-12-03T02:41:34.674Z,33.88
2022-12-03T02:44:01.677Z,38.03
2022-12-03T02:46:28.467Z,36.53
2022-12-03T02:48:55.149Z,32.72
2022-12-03T02:51:21.611Z,35.80
2022-12-03T02:53:50.120Z,37.15
2022-12-03T02:56:20.626Z,31.90
2022-12-03T02:58:49.721Z,33.30
2022-12-03T03:01:17.465Z,32.13
2022-12-03T03:03:45.619Z,37.20
2022-12-03T03:06:12.603Z,35.30
2022-12-03T03:08:40.237Z,29.42
2022-12-03T03:11:06.687Z,36.80
2022-12-03T03:13:35.364Z,36.22
2022-12-03T03:16:03.958Z,28.67
2022-12-03T03:18:31.090Z,30.98
2022-12-03T03:20:57.516Z,34.55
2022-12-03T03:23:24.491Z,36.58
2022-12-03T03:26:12.240Z,35.58
2022-12-03T03:28:45.561Z,35.73
2022-12-03T03:31:15.381Z,37.28
2022-12-03T03:33:45.185Z,37.17
2022-12-03T03:36:13.092Z,33.38
2022-12-03T03:38:39.756Z,33.83
2022-12-03T03:41:08.864Z,31.03
2022-12-03T03:43:37.975Z,35.17
2022-12-03T03:46:06.416Z,35.88
2022-12-03T03:48:34.642Z,35.25
2022-12-03T03:51:09.235Z,35.40
2022-12-03T03:53:39.337Z,33.53
2022-12-03T03:56:06.518Z,36.75
2022-12-03T03:58:33.053Z,39.17
2022-12-03T04:01:00.756Z,37.60
2022-12-03T04:03:28.356Z,38.70
2022-12-03T04:05:54.910Z,35.70
2022-12-03T04:08:21.428Z,33.80
2022-12-03T04:11:06.084Z,33.13
2022-12-03T04:13:32.512Z,34.42
2022-12-03T04:15:59.091Z,33.83
2022-12-03T04:18:43.652Z,36.80
2022-12-03T04:21:36.558Z,30.92
2022-12-03T04:24:04.270Z,32.90
2022-12-03T04:26:49.592Z,31.85
2022-12-03T04:29:16.198Z,32.85
2022-12-03T04:32:01.313Z,31.70
2022-12-03T04:34:46.051Z,29.00
2022-12-03T04:37:12.677Z,28.23
2022-12-03T04:39:39.264Z,31.10
2022-12-03T04:42:06.368Z,34.00
2022-12-03T04:44:33.469Z,31.73
2022-12-03T04:47:00.780Z,34.08
2022-12-03T04:49:27.228Z,30.10
2022-12-03T04:51:53.705Z,30.15
2022-12-03T04:54:20.150Z,24.00
2022-12-03T04:56:46.618Z,26.73
2022-12-03T04:59:16.255Z,30.45
2022-12-03T05:01:44.298Z,31.70
2022-12-03T05:04:11.479Z,28.90
2022-12-03T05:06:38.030Z,31.98
2022-12-03T05:09:04.720Z,29.00
2022-12-03T05:11:31.231Z,26.83
2022-12-03T05:13:57.688Z,29.38
2022-12-03T05:16:24.209Z,27.70
2022-12-03T05:18:50.731Z,25.67
2022-12-03T05:21:17.267Z,28.13
2022-12-03T05:23:44.091Z,31.67
2022-12-03T05:26:10.827Z,28.23
2022-12-03T05:28:37.249Z,30.58
2022-12-03T05:31:05.107Z,30.42
2022-12-03T05:33:31.730Z,25.57
2022-12-03T05:35:58.440Z,29.15
2022-12-03T05:38:24.835Z,29.65
2022-12-03T05:40:51.275Z,27.17
2022-12-03T05:43:17.753Z,30.45
2022-12-03T05:45:45.120Z,27.07
2022-12-03T05:48:14.453Z,25.20
2022-12-03T05:50:44.267Z,27.40
2022-12-03T05:53:11.812Z,28.65
2022-12-03T05:55:38.641Z,23.45
2022-12-03T05:58:05.493Z,27.20
2022-12-03T06:00:42.504Z,30.25
2022-12-03T06:03:10.191Z,25.67
2022-12-03T06:05:36.877Z,27.15
2022-12-03T06:08:03.536Z,34.33
2022-12-03T06:10:30.484Z,26.50
2022-12-03T06:12:57.130Z,26.45
2022-12-03T06:15:23.897Z,27.10
2022-12-03T06:17:50.538Z,26.98
2022-12-03T06:20:19.714Z,24.23
2022-12-03T06:22:46.879Z,27.73
2022-12-03T06:25:14.144Z,25.42
2022-12-03T06:27:40.601Z,24.23
2022-12-03T06:30:08.902Z,24.88
2022-12-03T06:32:35.854Z,23.45
2022-12-03T06:35:02.802Z,26.23
2022-12-03T06:37:29.253Z,25.88
2022-12-03T06:39:55.668Z,24.55
2022-12-03T06:42:22.457Z,24.85
2022-12-03T06:44:48.916Z,26.58
2022-12-03T06:47:15.344Z,24.80
2022-12-03T06:49:41.856Z,30.15
2022-12-03T06:52:08.333Z,25.33
2022-12-03T06:54:34.805Z,26.10
2022-12-03T06:57:01.345Z,27.15
2022-12-03T06:59:27.854Z,27.93
2022-12-03T07:01:54.359Z,31.23
2022-12-03T07:04:20.825Z,26.33
2022-12-03T07:06:47.277Z,30.88
2022-12-03T07:09:16.313Z,29.52
2022-12-03T07:11:42.953Z,28.40
2022-12-03T07:14:11.333Z,33.85
2022-12-03T07:16:39.285Z,37.53
2022-12-03T07:19:06.935Z,26.52
2022-12-03T07:21:33.688Z,34.50
2022-12-03T07:24:00.513Z,31.20
2022-12-03T07:26:27.233Z,28.73
2022-12-03T07:28:53.690Z,27.70
2022-12-03T07:31:20.267Z,32.53
2022-12-03T07:33:46.828Z,30.00
2022-12-03T07:36:13.265Z,32.03
2022-12-03T07:38:39.764Z,31.65
2022-12-03T07:41:06.282Z,25.48
2022-12-03T07:43:32.953Z,31.40
2022-12-03T07:45:59.386Z,32.53
2022-12-03T07:48:25.854Z,31.90
2022-12-03T07:50:52.329Z,29.60
2022-12-03T07:53:18.885Z,30.02
2022-12-03T07:55:45.648Z,31.42
2022-12-03T07:58:12.136Z,31.02
2022-12-03T08:00:38.664Z,30.63
2022-12-03T08:03:05.172Z,32.30
2022-12-03T08:05:31.638Z,31.65
2022-12-03T08:07:58.127Z,31.23
2022-12-03T08:10:26.621Z,29.73
2022-12-03T08:12:53.763Z,37.03
2022-12-03T08:15:26.610Z,30.67
2022-12-03T08:18:01.541Z,32.38
2022-12-03T08:20:31.736Z,28.02
2022-12-03T08:22:58.930Z,32.70
2022-12-03T08:25:26.672Z,32.77
2022-12-03T08:27:57.816Z,33.00
2022-12-03T08:30:24.367Z,33.30
2022-12-03T08:32:51.114Z,35.72
2022-12-03T08:35:27.407Z,35.90
2022-12-03T08:38:06.085Z,39.13
2022-12-03T08:40:39.584Z,47.65
2022-12-03T08:43:22.957Z,39.80
2022-12-03T08:45:52.030Z,35.03
2022-12-03T08:48:18.426Z,37.53
2022-12-03T08:50:45.223Z,36.60
2022-12-03T08:53:25.742Z,39.83
2022-12-03T08:55:54.303Z,39.20
2022-12-03T08:58:32.222Z,49.47
2022-12-03T09:01:14.290Z,54.92
2022-12-03T09:04:21.229Z,44.90
2022-12-03T09:06:48.288Z,40.13
2022-12-03T09:09:14.904Z,42.92
2022-12-03T09:11:43.176Z,45.88
2022-12-03T09:14:15.102Z,39.78
2022-12-03T09:16:44.741Z,47.37
2022-12-03T09:19:11.305Z,45.60
2022-12-03T09:21:37.734Z,45.38
2022-12-03T09:24:04.261Z,49.42
2022-12-03T09:26:31.275Z,47.00
2022-12-03T09:28:57.812Z,47.40
2022-12-03T09:31:24.384Z,59.78
2022-12-03T09:33:50.966Z,48.53
2022-12-03T09:36:17.430Z,46.10
2022-12-03T09:38:47.731Z,50.90
2022-12-03T09:41:14.841Z,46.07
2022-12-03T09:44:03.202Z,56.28
2022-12-03T09:46:30.123Z,48.65
2022-12-03T09:48:56.884Z,54.05
2022-12-03T09:51:30.125Z,56.75
2022-12-03T09:53:59.215Z,57.17
2022-12-03T09:56:25.712Z,48.72
2022-12-03T09:58:52.490Z,53.17
2022-12-03T10:01:19.062Z,50.50
2022-12-03T10:03:51.143Z,57.33
2022-12-03T10:06:22.654Z,51.40
2022-12-03T10:08:52.874Z,60.97
2022-12-03T10:11:21.402Z,51.92
2022-12-03T10:13:48.459Z,58.65
2022-12-03T10:16:18.609Z,53.13
2022-12-03T10:18:49.565Z,52.23
2022-12-03T10:21:38.534Z,53.78
2022-12-03T10:24:17.728Z,57.22
2022-12-03T10:26:45.769Z,54.88
2022-12-03T10:29:19.746Z,54.15
2022-12-03T10:31:54.146Z,51.07
2022-12-03T10:34:30.686Z,54.80
2022-12-03T10:37:08.726Z,62.53
2022-12-03T10:39:55.920Z,52.00
2022-12-03T10:42:23.685Z,52.22
2022-12-03T10:45:06.201Z,54.80
2022-12-03T10:47:32.785Z,60.45
2022-12-03T10:50:06.127Z,63.53
2022-12-03T10:52:32.874Z,56.42
2022-12-03T10:54:59.399Z,59.88
2022-12-03T10:57:26.376Z,56.90
2022-12-03T10:59:52.800Z,55.30
2022-12-03T11:02:22.464Z,50.63
2022-12-03T11:04:50.317Z,49.90
2022-12-03T11:07:21.836Z,44.20
2022-12-03T11:09:51.903Z,50.63
2022-12-03T11:12:24.686Z,48.08
2022-12-03T11:14:51.931Z,54.30
2022-12-03T11:17:40.259Z,48.03
2022-12-03T11:20:24.984Z,45.83
2022-12-03T11:22:52.913Z,55.37
2022-12-03T11:25:25.397Z,50.50
2022-12-03T11:28:10.466Z,52.08
2022-12-03T11:30:49.212Z,54.08
2022-12-03T11:33:33.328Z,44.78
2022-12-03T11:36:02.474Z,45.90
2022-12-03T11:38:38.274Z,49.85
2022-12-03T11:41:35.053Z,47.42
2022-12-03T11:44:26.716Z,41.38
2022-12-03T11:46:54.163Z,49.80
2022-12-03T11:49:37.721Z,52.47
2022-12-03T11:52:19.917Z,43.03
2022-12-03T11:54:50.398Z,44.55
2022-12-03T11:57:26.559Z,41.80
2022-12-03T12:00:01.738Z,45.95
2022-12-03T12:02:28.299Z,40.30
2022-12-03T12:04:54.762Z,41.50
2022-12-03T12:07:35.133Z,40.53
2022-12-03T12:10:01.878Z,39.35
2022-12-03T12:12:31.047Z,43.28
2022-12-03T12:14:59.055Z,41.00
2022-12-03T12:17:36.528Z,41.88
2022-12-03T12:20:21.688Z,35.92
2022-12-03T12:22:48.181Z,36.20
2022-12-03T12:25:29.622Z,37.78
2022-12-03T12:27:56.978Z,32.00
2022-12-03T12:30:24.090Z,32.30
2022-12-03T12:32:52.989Z,29.05
2022-12-03T12:35:24.962Z,31.85
2022-12-03T12:38:08.669Z,28.65
2022-12-03T12:40:38.640Z,29.43
2022-12-03T12:43:15.340Z,24.70
2022-12-03T12:45:43.996Z,25.83
2022-12-03T12:48:16.340Z,28.42
2022-12-03T12:50:45.337Z,27.55
2022-12-03T12:53:20.804Z,20.63
2022-12-03T12:55:48.678Z,29.17
2022-12-03T12:58:18.239Z,24.73
2022-12-03T13:00:50.898Z,25.90
2022-12-03T13:03:20.102Z,25.95
2022-12-03T13:05:49.212Z,26.17
2022-12-03T13:08:23.318Z,27.13
2022-12-03T13:10:52.255Z,29.23
2022-12-03T13:13:25.332Z,32.55
2022-12-03T13:16:04.029Z,24.98
2022-12-03T13:18:41.561Z,27.77
2022-12-03T13:21:24.406Z,30.60
2022-12-03T13:23:53.615Z,33.10
2022-12-03T13:26:39.417Z,32.28
2022-12-03T13:29:18.171Z,34.92
2022-12-03T13:31:54.212Z,32.63
2022-12-03T13:34:24.010Z,31.38
2022-12-03T13:36:57.659Z,36.80
2022-12-03T13:39:36.803Z,33.45
2022-12-03T13:42:40.997Z,31.48
2022-12-03T13:45:16.274Z,38.17
2022-12-03T13:47:53.162Z,56.15
2022-12-03T13:50:41.030Z,72.15
2022-12-03T13:53:22.510Z,82.20
2022-12-03T13:55:54.012Z,67.68
2022-12-03T13:58:20.444Z,61.80
2022-12-03T14:00:46.961Z,69.80
2022-12-03T14:03:13.548Z,84.53
2022-12-03T14:05:40.003Z,105.28
2022-12-03T14:08:06.582Z,52.17
2022-12-03T14:10:33.233Z,78.73
2022-12-03T14:12:59.662Z,86.55
2022-12-03T14:15:28.889Z,78.07
2022-12-03T14:17:55.398Z,61.03
2022-12-03T14:20:22.148Z,43.50
2022-12-03T14:22:48.616Z,48.23
2022-12-03T14:25:15.123Z,42.13
2022-12-03T14:27:41.628Z,43.50
2022-12-03T14:30:09.201Z,47.97
2022-12-03T14:32:35.692Z,41.05
2022-12-03T14:35:06.705Z,48.07
2022-12-03T14:37:36.472Z,54.70
2022-12-03T14:40:03.921Z,53.13
2022-12-03T14:42:30.401Z,55.38
2022-12-03T14:44:56.822Z,52.28
2022-12-03T14:47:23.288Z,49.20
2022-12-03T14:49:50.649Z,54.75
2022-12-03T14:52:18.131Z,55.45
2022-12-03T14:54:45.253Z,56.33
2022-12-03T14:57:13.959Z,53.25
2022-12-03T14:59:41.608Z,55.13
2022-12-03T15:02:09.844Z,53.85
2022-12-03T15:04:36.768Z,56.90
2022-12-03T15:07:03.574Z,53.55
2022-12-03T15:09:30.028Z,47.15
2022-12-03T15:11:56.445Z,54.00
2022-12-03T15:14:22.898Z,49.17
2022-12-03T15:16:49.390Z,46.92
2022-12-03T15:19:16.140Z,40.90
2022-12-03T15:21:42.665Z,44.97
2022-12-03T15:24:10.613Z,42.03
2022-12-03T15:26:37.420Z,45.50
2022-12-03T15:29:03.840Z,41.80
2022-12-03T15:31:30.436Z,44.65
2022-12-03T15:33:56.933Z,37.70
2022-12-03T15:36:23.426Z,41.57
2022-12-03T15:38:49.920Z,44.85
2022-12-03T15:41:24.580Z,38.47
2022-12-03T15:43:52.641Z,40.28
2022-12-03T15:46:20.296Z,43.85
2022-12-03T15:48:47.432Z,40.40
2022-12-03T15:51:14.257Z,41.10
2022-12-03T15:53:41.082Z,43.40
2022-12-03T15:56:07.697Z,42.25
2022-12-03T15:58:34.569Z,38.17
2022-12-03T16:01:01.429Z,39.43
2022-12-03T16:03:28.065Z,41.80
2022-12-03T16:05:54.609Z,39.05
2022-12-03T16:08:21.474Z,42.60
2022-12-03T16:10:48.043Z,39.15
2022-12-03T16:13:14.472Z,35.50
2022-12-03T16:15:41.009Z,41.22
2022-12-03T16:18:07.429Z,40.13
2022-12-03T16:20:33.861Z,40.75
2022-12-03T16:23:00.282Z,39.58
2022-12-03T16:25:26.838Z,37.90
2022-12-03T16:27:53.341Z,35.92
2022-12-03T16:30:20.209Z,37.85
2022-12-03T16:32:46.658Z,42.75
2022-12-03T16:35:13.089Z,40.00
2022-12-03T16:37:39.536Z,40.47
2022-12-03T16:40:07.208Z,47.67
2022-12-03T16:42:33.736Z,49.30
2022-12-03T16:45:02.865Z,49.17
2022-12-03T16:47:33.784Z,44.58
2022-12-03T16:50:01.901Z,49.03
2022-12-03T16:52:28.457Z,46.33
2022-12-03T16:54:54.949Z,47.03
2022-12-03T16:57:21.375Z,43.08
2022-12-03T16:59:47.822Z,46.88
2022-12-03T17:02:14.458Z,45.53
2022-12-03T17:04:40.999Z,47.97
2022-12-03T17:07:07.416Z,47.75
2022-12-03T17:09:33.820Z,52.95
2022-12-03T17:12:00.262Z,53.45
2022-12-03T17:14:32.800Z,53.53
2022-12-03T17:16:59.742Z,54.28
2022-12-03T17:19:26.231Z,54.40
2022-12-03T17:21:54.014Z,49.78
2022-12-03T17:24:21.389Z,57.67
2022-12-03T17:26:47.905Z,60.67
2022-12-03T17:29:14.371Z,62.70
2022-12-03T17:31:42.613Z,57.15
2022-12-03T17:34:09.605Z,59.70
2022-12-03T17:36:36.053Z,58.85
2022-12-03T17:39:02.540Z,62.33
2022-12-03T17:41:29.028Z,62.20
2022-12-03T17:43:55.504Z,57.40
2022-12-03T17:46:22.002Z,59.67
2022-12-03T17:48:48.494Z,55.28
2022-12-03T17:51:14.945Z,59.27
2022-12-03T17:53:41.422Z,61.13
2022-12-03T17:56:07.945Z,53.72
2022-12-03T17:58:34.747Z,53.10
2022-12-03T18:01:03.172Z,62.80
2022-12-03T18:03:30.277Z,54.20
2022-12-03T18:05:56.918Z,52.45
2022-12-03T18:08:23.470Z,63.47
2022-12-03T18:10:50.271Z,56.70
2022-12-03T18:13:16.732Z,62.35
2022-12-03T18:15:43.283Z,64.90
2022-12-03T18:18:09.916Z,56.65
2022-12-03T18:20:36.675Z,54.95
2022-12-03T18:23:03.551Z,60.35
2022-12-03T18:25:30.605Z,59.42
2022-12-03T18:27:57.345Z,60.00
2022-12-03T18:30:24.043Z,59.47
2022-12-03T18:32:50.905Z,62.90
2022-12-03T18:35:17.987Z,57.72
2022-12-03T18:37:44.598Z,59.72
2022-12-03T18:40:23.094Z,63.00
2022-12-03T18:42:49.574Z,57.08
2022-12-03T18:45:16.689Z,61.13
2022-12-03T18:47:43.441Z,70.45
2022-12-03T18:50:11.407Z,68.38
2022-12-03T18:52:38.679Z,59.17
2022-12-03T18:55:06.417Z,60.72
2022-12-03T18:57:32.865Z,57.85
2022-12-03T19:00:01.581Z,64.13
2022-12-03T19:05:14.441Z,60.03
2022-12-03T19:07:40.960Z,56.25
2022-12-03T19:10:08.712Z,54.90
2022-12-03T19:12:35.575Z,50.10
2022-12-03T19:15:02.652Z,59.03
2022-12-03T19:17:29.093Z,54.00
2022-12-03T19:19:55.850Z,59.58
2022-12-03T19:22:22.948Z,50.30
2022-12-03T19:24:49.796Z,53.67
2022-12-03T19:27:16.320Z,52.33
2022-12-03T19:29:42.812Z,55.23
2022-12-03T19:32:09.423Z,62.33
2022-12-03T19:34:36.220Z,55.17
2022-12-03T19:37:02.679Z,57.72
2022-12-03T19:39:29.207Z,54.63
2022-12-03T19:41:55.740Z,50.00
2022-12-03T19:44:22.229Z,54.25
2022-12-03T19:46:49.704Z,49.63
2022-12-03T19:49:18.447Z,55.70
2022-12-03T19:51:44.921Z,45.97
2022-12-03T19:54:11.965Z,51.90
2022-12-03T19:56:38.448Z,56.45
2022-12-03T19:59:05.344Z,50.55
2022-12-03T20:01:34.636Z,44.65
2022-12-03T20:04:03.118Z,43.90
2022-12-03T20:06:33.639Z,49.27
2022-12-03T20:09:04.955Z,51.90
2022-12-03T20:11:32.837Z,46.38
2022-12-03T20:14:02.378Z,50.20
2022-12-03T20:16:30.074Z,63.80
2022-12-03T20:18:59.627Z,54.53
2022-12-03T20:21:28.375Z,48.05
2022-12-03T20:23:54.808Z,49.55
2022-12-03T20:26:21.802Z,51.05
2022-12-03T20:28:48.650Z,41.63
2022-12-03T20:31:18.257Z,54.90
2022-12-03T20:33:50.212Z,49.90
2022-12-03T20:36:18.483Z,53.70
2022-12-03T20:38:45.136Z,48.53
2022-12-03T20:41:14.409Z,48.28
2022-12-03T20:43:41.431Z,56.70
2022-12-03T20:46:12.271Z,57.42
2022-12-03T20:48:39.377Z,49.03
2022-12-03T20:51:07.592Z,47.25
2022-12-03T20:53:35.172Z,50.83
2022-12-03T20:56:02.197Z,46.07
2022-12-03T20:58:30.057Z,49.22
2022-12-03T21:00:56.780Z,46.83
2022-12-03T21:03:23.213Z,47.55
2022-12-03T21:05:49.749Z,49.40
2022-12-03T21:08:20.926Z,61.47
2022-12-03T21:10:55.239Z,57.80
2022-12-03T21:13:21.919Z,53.80
2022-12-03T21:15:48.560Z,47.97
2022-12-03T21:18:17.570Z,50.15
2022-12-03T21:20:46.441Z,44.60
2022-12-03T21:23:14.052Z,48.47
2022-12-03T21:25:40.689Z,50.55
2022-12-03T21:28:09.397Z,51.15
2022-12-03T21:30:39.945Z,50.25
2022-12-03T21:33:06.972Z,60.27
2022-12-03T21:35:37.416Z,52.70
2022-12-03T21:38:04.011Z,46.63
2022-12-03T21:40:30.530Z,54.95
2022-12-03T21:42:56.990Z,47.28
2022-12-03T21:45:25.005Z,51.07
2022-12-03T21:47:51.620Z,51.83
2022-12-03T21:50:18.191Z,47.20
2022-12-03T21:52:44.656Z,48.95
2022-12-03T21:55:11.207Z,51.85
2022-12-03T21:57:37.892Z,51.57
2022-12-03T22:00:07.755Z,50.80
2022-12-03T22:02:34.771Z,55.05
2022-12-03T22:05:02.348Z,51.63
2022-12-03T22:07:28.869Z,48.75
2022-12-03T22:09:55.620Z,52.70
2022-12-03T22:12:22.241Z,54.90
2022-12-03T22:14:48.687Z,53.67
2022-12-03T22:17:15.086Z,59.13
2022-12-03T22:19:42.122Z,53.65
2022-12-03T22:22:08.641Z,55.93
2022-12-03T22:24:35.122Z,47.80
2022-12-03T22:27:02.047Z,53.90
2022-12-03T22:29:28.477Z,53.13
2022-12-03T22:31:54.925Z,57.17
2022-12-03T22:34:21.388Z,45.10
2022-12-03T22:36:47.981Z,49.42
2022-12-03T22:39:14.417Z,52.08
2022-12-03T22:41:40.921Z,53.28
2022-12-03T22:44:07.385Z,50.10
2022-12-03T22:46:33.905Z,60.90
2022-12-03T22:49:06.460Z,50.58
2022-12-03T22:51:34.209Z,55.55
2022-12-03T22:54:01.956Z,46.15
2022-12-03T22:56:29.626Z,50.70
2022-12-03T22:58:56.158Z,53.50
2022-12-03T23:01:31.350Z,54.28
2022-12-03T23:03:58.581Z,51.92
2022-12-03T23:06:25.343Z,63.17
2022-12-03T23:08:52.250Z,63.95
2022-12-03T23:11:19.401Z,59.23
2022-12-03T23:13:46.446Z,60.78
2022-12-03T23:16:19.601Z,52.95
2022-12-03T23:18:46.485Z,51.65
2022-12-03T23:21:17.781Z,53.60
2022-12-03T23:23:44.274Z,56.73
2022-12-03T23:26:13.158Z,57.70
2022-12-03T23:28:41.247Z,56.15
2022-12-03T23:31:17.717Z,53.63
2022-12-03T23:33:45.025Z,62.00
2022-12-03T23:36:11.831Z,89.93
2022-12-03T23:38:39.272Z,95.47
2022-12-03T23:41:08.440Z,57.60
2022-12-03T23:43:34.948Z,64.95
2022-12-03T23:46:07.198Z,57.00
2022-12-03T23:48:33.772Z,48.20
2022-12-03T23:51:05.786Z,62.65
2022-12-03T23:53:32.474Z,56.63
2022-12-03T23:55:58.919Z,59.72
2022-12-03T23:58:25.349Z,55.22
